createdAt,value
2022-11-19T00:07:03.697Z,99836.26
2022-11-19T00:09:31.510Z,99844.22
2022-11-19T00:12:17.673Z,99848.07
2022-11-19T00:14:45.378Z,99849.79
2022-11-19T00:17:13.109Z,99848.75
2022-11-19T00:19:40.808Z,99853.15
2022-11-19T00:22:08.446Z,99854.55
2022-11-19T00:24:36.267Z,99854.94
2022-11-19T00:27:03.983Z,99856.74
2022-11-19T00:29:31.755Z,99856.86
2022-11-19T00:31:59.540Z,99857.70
2022-11-19T00:34:27.207Z,99859.71
2022-11-19T00:36:54.887Z,99860.22
2022-11-19T00:39:22.951Z,99860.20
2022-11-19T00:41:50.912Z,99862.09
2022-11-19T00:44:18.554Z,99858.86
2022-11-19T00:46:46.206Z,99865.73
2022-11-19T00:49:13.994Z,99860.72
2022-11-19T00:51:41.631Z,99861.89
2022-11-19T00:54:09.455Z,99863.42
2022-11-19T00:56:37.225Z,99867.91
2022-11-19T00:59:04.995Z,99867.34
2022-11-19T01:01:32.877Z,99873.36
2022-11-19T01:04:00.593Z,99874.20
2022-11-19T01:06:28.305Z,99875.06
2022-11-19T01:08:56.018Z,99878.29
2022-11-19T01:11:26.746Z,99878.98
2022-11-19T01:13:54.488Z,99884.05
2022-11-19T01:16:27.750Z,99884.69
2022-11-19T01:18:56.126Z,99888.70
2022-11-19T01:21:27.039Z,99888.54
2022-11-19T01:23:55.384Z,99884.05
2022-11-19T01:26:23.587Z,99886.55
2022-11-19T01:28:51.670Z,99888.78
2022-11-19T01:31:23.282Z,99891.37
2022-11-19T01:33:51.120Z,99888.98
2022-11-19T01:36:21.612Z,99889.82
2022-11-19T01:38:51.068Z,99888.59
2022-11-19T01:41:21.674Z,99889.42
2022-11-19T01:43:52.549Z,99887.63
2022-11-19T01:46:25.510Z,99889.63
2022-11-19T01:49:16.942Z,99889.83
2022-11-19T01:52:00.575Z,99887.45
2022-11-19T01:54:34.535Z,99894.48
2022-11-19T01:57:08.379Z,99892.25
2022-11-19T01:59:36.586Z,99890.45
2022-11-19T02:02:04.313Z,99891.00
2022-11-19T02:04:34.006Z,99897.58
2022-11-19T02:07:02.479Z,99893.44
2022-11-19T02:09:30.701Z,99896.62
2022-11-19T02:12:32.139Z,99893.70
2022-11-19T02:15:11.004Z,99891.83
2022-11-19T02:17:54.484Z,99890.87
2022-11-19T02:20:41.101Z,99889.81
2022-11-19T02:23:34.047Z,99885.61
2022-11-19T02:26:44.682Z,99875.99
2022-11-19T02:29:30.732Z,99872.41
2022-11-19T02:32:13.447Z,99873.95
2022-11-19T02:34:52.191Z,99876.81
2022-11-19T02:37:28.724Z,99880.06
2022-11-19T02:40:09.399Z,99882.52
2022-11-19T02:43:09.390Z,99882.33
2022-11-19T02:45:43.055Z,99880.69
2022-11-19T02:48:49.443Z,99881.99
2022-11-19T02:51:18.726Z,99884.30
2022-11-19T02:53:49.500Z,99882.61
2022-11-19T02:56:45.351Z,99886.27
2022-11-19T02:59:33.273Z,99890.16
2022-11-19T03:02:23.287Z,99899.04
2022-11-19T03:04:52.078Z,99904.77
2022-11-19T03:07:21.471Z,99911.35
2022-11-19T03:09:54.754Z,99917.38
2022-11-19T03:12:29.027Z,99923.52
2022-11-19T03:15:45.224Z,99923.38
2022-11-19T03:18:22.396Z,99926.58
2022-11-19T03:21:01.592Z,99928.30
2022-11-19T03:23:37.681Z,99931.40
2022-11-19T03:26:18.498Z,99930.10
2022-11-19T03:28:48.478Z,99932.48
2022-11-19T03:31:18.018Z,99931.06
2022-11-19T03:33:50.270Z,99931.85
2022-11-19T03:36:23.346Z,99931.28
2022-11-19T03:38:58.042Z,99931.55
2022-11-19T03:41:27.395Z,99933.50
2022-11-19T03:43:58.449Z,99931.98
2022-11-19T03:46:28.963Z,99938.48
2022-11-19T03:48:59.638Z,99939.80
2022-11-19T03:51:47.273Z,99946.66
2022-11-19T03:54:16.095Z,99951.87
2022-11-19T03:56:45.625Z,99958.37
2022-11-19T03:59:13.445Z,99959.81
2022-11-19T04:01:42.136Z,99966.59
2022-11-19T04:04:28.719Z,99969.55
2022-11-19T04:06:56.437Z,99969.87
2022-11-19T04:09:24.090Z,99970.80
2022-11-19T04:14:18.263Z,99974.20
2022-11-19T04:16:46.012Z,99973.60
2022-11-19T04:19:13.637Z,99971.73
2022-11-19T04:21:41.273Z,99975.61
2022-11-19T04:24:09.194Z,99976.20
2022-11-19T04:26:36.841Z,99971.39
2022-11-19T04:29:04.698Z,99971.13
2022-11-19T04:31:32.417Z,99980.81
2022-11-19T04:34:00.155Z,99981.98
2022-11-19T04:36:27.921Z,99979.55
2022-11-19T04:38:55.646Z,99979.23
2022-11-19T04:41:23.638Z,99985.14
2022-11-19T04:43:51.512Z,99984.80
2022-11-19T04:46:19.143Z,99985.06
2022-11-19T04:48:46.780Z,99988.45
2022-11-19T04:51:14.471Z,99988.13
2022-11-19T04:53:42.142Z,99992.55
2022-11-19T04:56:10.218Z,99991.08
2022-11-19T04:58:37.953Z,99989.88
2022-11-19T05:01:06.590Z,99988.92
2022-11-19T05:03:34.459Z,99994.19
2022-11-19T05:06:02.298Z,99993.48
2022-11-19T05:08:30.044Z,99992.38
2022-11-19T05:10:57.724Z,99987.18
2022-11-19T05:13:25.408Z,99989.39
2022-11-19T05:15:53.178Z,99986.61
2022-11-19T05:18:21.184Z,99983.63
2022-11-19T05:20:48.829Z,99983.42
2022-11-19T05:23:16.453Z,99993.28
2022-11-19T05:25:44.163Z,99996.66
2022-11-19T05:28:11.795Z,99995.67
2022-11-19T05:30:39.443Z,99993.40
2022-11-19T05:33:07.189Z,99997.95
2022-11-19T05:35:34.863Z,100001.50
2022-11-19T05:38:02.582Z,100005.58
2022-11-19T05:40:30.253Z,100011.89
2022-11-19T05:43:04.369Z,100007.41
2022-11-19T05:45:32.308Z,100010.41
2022-11-19T05:48:00.083Z,100014.08
2022-11-19T05:50:27.908Z,100015.95
2022-11-19T05:52:55.646Z,100017.27
2022-11-19T05:55:23.368Z,100021.11
2022-11-19T05:57:51.229Z,100023.64
2022-11-19T06:00:19.150Z,100028.41
2022-11-19T06:02:46.852Z,100029.77
2022-11-19T06:05:14.663Z,100033.59
2022-11-19T06:12:01.164Z,100045.61
2022-11-19T06:14:28.885Z,100049.20
2022-11-19T06:17:00.058Z,100052.29
2022-11-19T06:19:27.771Z,100055.16
2022-11-19T06:21:55.443Z,100057.52
2022-11-19T06:24:23.109Z,100066.79
2022-11-19T06:26:50.880Z,100070.21
2022-11-19T06:29:19.577Z,100074.55
2022-11-19T06:31:47.529Z,100083.12
2022-11-19T06:34:15.306Z,100078.02
2022-11-19T06:36:49.120Z,100082.71
2022-11-19T06:39:19.204Z,100090.95
2022-11-19T06:41:48.760Z,100092.65
2022-11-19T06:44:16.691Z,100095.73
2022-11-19T06:46:44.296Z,100100.17
2022-11-19T06:49:16.856Z,100105.41
2022-11-19T06:51:47.665Z,100103.00
2022-11-19T06:54:15.527Z,100111.02
2022-11-19T06:56:43.159Z,100110.16
2022-11-19T06:59:10.824Z,100112.65
2022-11-19T07:01:38.509Z,100115.56
2022-11-19T07:04:06.146Z,100115.02
2022-11-19T07:06:33.850Z,100117.43
2022-11-19T07:09:01.596Z,100118.90
2022-11-19T07:11:30.099Z,100118.38
2022-11-19T07:13:58.083Z,100115.91
2022-11-19T07:16:31.801Z,100114.77
2022-11-19T07:19:04.125Z,100118.27
2022-11-19T07:21:32.468Z,100118.21
2022-11-19T07:24:03.820Z,100118.89
2022-11-19T07:26:33.021Z,100116.23
2022-11-19T07:29:04.900Z,100120.02
2022-11-19T07:31:33.806Z,100123.98
2022-11-19T07:34:01.639Z,100128.98
2022-11-19T07:36:29.990Z,100134.66
2022-11-19T07:38:58.054Z,100135.10
2022-11-19T07:41:53.182Z,100139.23
2022-11-19T07:44:20.944Z,100141.88
2022-11-19T07:46:48.579Z,100142.40
2022-11-19T07:49:16.349Z,100142.92
2022-11-19T07:51:44.767Z,100144.35
2022-11-19T07:54:14.160Z,100142.17
2022-11-19T07:56:42.492Z,100143.92
2022-11-19T07:59:10.491Z,100142.52
2022-11-19T08:01:38.572Z,100140.79
2022-11-19T08:04:06.436Z,100141.01
2022-11-19T08:06:35.243Z,100137.13
2022-11-19T08:09:04.439Z,100139.91
2022-11-19T08:11:32.116Z,100140.42
2022-11-19T08:14:03.281Z,100137.95
2022-11-19T08:16:51.634Z,100141.29
2022-11-19T08:19:20.348Z,100147.41
2022-11-19T08:21:48.319Z,100145.98
2022-11-19T08:24:18.770Z,100145.20
2022-11-19T08:26:47.518Z,100145.21
2022-11-19T08:29:17.130Z,100147.87
2022-11-19T08:31:46.520Z,100145.38
2022-11-19T08:34:15.201Z,100143.02
2022-11-19T08:36:43.429Z,100139.41
2022-11-19T08:39:11.247Z,100138.67
2022-11-19T08:41:57.766Z,100140.17
2022-11-19T08:44:26.311Z,100146.98
2022-11-19T08:46:54.052Z,100149.26
2022-11-19T08:49:21.748Z,100154.50
2022-11-19T08:51:49.544Z,100152.39
2022-11-19T08:54:17.866Z,100154.41
2022-11-19T08:56:45.729Z,100163.98
2022-11-19T08:59:13.391Z,100166.10
2022-11-19T09:01:41.116Z,100166.36
2022-11-19T09:04:08.783Z,100164.96
2022-11-19T09:06:36.537Z,100167.02
2022-11-19T09:09:04.880Z,100166.58
2022-11-19T09:11:39.861Z,100162.38
2022-11-19T09:14:10.377Z,100163.30
2022-11-19T09:16:38.594Z,100162.95
2022-11-19T09:19:06.235Z,100165.38
2022-11-19T09:21:34.027Z,100164.63
2022-11-19T09:24:01.779Z,100161.59
2022-11-19T09:26:29.474Z,100160.42
2022-11-19T09:28:57.103Z,100160.02
2022-11-19T09:31:24.861Z,100160.45
2022-11-19T09:33:54.023Z,100166.24
2022-11-19T09:36:21.779Z,100165.45
2022-11-19T09:38:49.614Z,100169.27
2022-11-19T09:41:17.201Z,100167.19
2022-11-19T09:43:44.829Z,100164.41
2022-11-19T09:46:36.706Z,100166.38
2022-11-19T09:49:11.846Z,100166.58
2022-11-19T09:51:42.661Z,100169.23
2022-11-19T09:54:20.131Z,100167.84
2022-11-19T09:56:50.193Z,100166.04
2022-11-19T09:59:38.065Z,100164.44
2022-11-19T10:02:24.738Z,100167.70
2022-11-19T10:04:53.294Z,100166.16
2022-11-19T10:08:13.178Z,100173.32
2022-11-19T10:11:02.164Z,100176.16
2022-11-19T10:13:43.264Z,100172.27
2022-11-19T10:16:10.899Z,100170.52
2022-11-19T10:18:47.806Z,100166.09
2022-11-19T10:21:33.185Z,100165.06
2022-11-19T10:24:27.057Z,100165.45
2022-11-19T10:27:04.357Z,100170.12
2022-11-19T10:29:38.153Z,100168.88
2022-11-19T10:32:30.849Z,100170.55
2022-11-19T10:35:06.999Z,100169.75
2022-11-19T10:37:47.653Z,100171.79
2022-11-19T10:40:19.325Z,100176.58
2022-11-19T10:42:54.276Z,100176.05
2022-11-19T10:45:25.088Z,100176.09
2022-11-19T10:47:56.806Z,100172.70
2022-11-19T10:50:25.599Z,100171.61
2022-11-19T10:53:24.971Z,100175.60
2022-11-19T10:56:00.498Z,100185.11
2022-11-19T10:58:40.540Z,100189.90
2022-11-19T11:01:27.136Z,100187.70
2022-11-19T11:04:06.481Z,100190.34
2022-11-19T11:07:07.189Z,100187.83
2022-11-19T11:09:36.221Z,100184.24
2022-11-19T11:12:35.480Z,100182.05
2022-11-19T11:15:19.867Z,100184.86
2022-11-19T11:17:59.841Z,100188.21
2022-11-19T11:20:29.101Z,100181.34
2022-11-19T11:23:11.911Z,100176.99
2022-11-19T11:25:40.493Z,100180.01
2022-11-19T11:28:13.208Z,100182.38
2022-11-19T11:30:59.678Z,100183.63
2022-11-19T11:33:29.217Z,100184.06
2022-11-19T11:36:04.924Z,100187.33
2022-11-19T11:38:42.602Z,100191.23
2022-11-19T11:42:03.796Z,100189.96
2022-11-19T11:44:08.529Z,100188.71
2022-11-19T11:46:53.402Z,100189.92
2022-11-19T11:49:29.413Z,100186.59
2022-11-19T11:52:03.151Z,100189.66
2022-11-19T11:54:31.369Z,100183.48
2022-11-19T11:57:23.515Z,100178.94
2022-11-19T11:59:51.425Z,100177.80
2022-11-19T12:02:33.802Z,100177.38
2022-11-19T12:05:07.683Z,100179.67
2022-11-19T12:08:00.368Z,100181.33
2022-11-19T12:10:47.965Z,100184.10
2022-11-19T12:13:33.770Z,100188.42
2022-11-19T12:16:19.725Z,100197.71
2022-11-19T12:19:05.510Z,100192.02
2022-11-19T12:22:10.626Z,100193.58
2022-11-19T12:24:57.078Z,100195.63
2022-11-19T12:27:47.105Z,100195.04
2022-11-19T12:30:19.363Z,100189.41
2022-11-19T12:33:04.535Z,100189.64
2022-11-19T12:35:51.047Z,100191.83
2022-11-19T12:38:58.113Z,100191.21
2022-11-19T12:41:31.623Z,100195.59
2022-11-19T12:44:00.545Z,100199.90
2022-11-19T12:46:37.250Z,100205.05
2022-11-19T12:49:20.162Z,100209.61
2022-11-19T12:51:54.025Z,100207.52
2022-11-19T12:55:04.377Z,100213.27
2022-11-19T12:57:51.914Z,100214.30
2022-11-19T13:00:25.049Z,100210.56
2022-11-19T13:03:04.651Z,100209.19
2022-11-19T13:05:40.978Z,100210.85
2022-11-19T13:08:13.606Z,100209.05
2022-11-19T13:11:17.615Z,100206.17
2022-11-19T13:14:00.040Z,100200.80
2022-11-19T13:16:30.738Z,100206.13
2022-11-19T13:19:14.909Z,100206.88
2022-11-19T13:21:56.404Z,100210.91
2022-11-19T13:24:32.636Z,100211.80
2022-11-19T13:27:04.989Z,100213.39
2022-11-19T13:29:47.876Z,100217.23
2022-11-19T13:32:38.988Z,100223.68
2022-11-19T13:35:18.879Z,100234.40
2022-11-19T13:38:19.690Z,100241.10
2022-11-19T13:41:04.549Z,100243.58
2022-11-19T13:43:50.867Z,100244.03
2022-11-19T13:46:25.776Z,100249.29
2022-11-19T13:49:11.705Z,100250.63
2022-11-19T13:51:52.276Z,100251.14
2022-11-19T13:54:26.329Z,100252.61
2022-11-19T13:56:58.063Z,100253.53
2022-11-19T13:59:31.658Z,100260.19
2022-11-19T14:02:24.308Z,100259.31
2022-11-19T14:05:16.264Z,100265.20
2022-11-19T14:07:52.944Z,100266.32
2022-11-19T14:10:26.318Z,100266.75
2022-11-19T14:13:29.612Z,100270.91
2022-11-19T14:16:38.081Z,100269.94
2022-11-19T14:19:34.302Z,100268.33
2022-11-19T14:22:51.019Z,100270.86
2022-11-19T14:26:04.339Z,100269.45
2022-11-19T14:28:41.244Z,100268.18
2022-11-19T14:31:09.470Z,100264.73
2022-11-19T14:33:42.882Z,100263.77
2022-11-19T14:36:13.200Z,100263.73
2022-11-19T14:38:49.885Z,100260.70
2022-11-19T14:41:26.794Z,100257.48
2022-11-19T14:44:10.871Z,100260.80
2022-11-19T14:46:48.181Z,100259.23
2022-11-19T14:49:37.938Z,100266.31
2022-11-19T14:52:22.585Z,100267.35
2022-11-19T14:55:04.898Z,100266.56
2022-11-19T14:57:37.713Z,100263.21
2022-11-19T15:00:16.332Z,100263.92
2022-11-19T15:02:51.153Z,100259.18
2022-11-19T15:05:22.127Z,100259.62
2022-11-19T15:07:56.164Z,100260.72
2022-11-19T15:10:30.050Z,100258.25
2022-11-19T15:13:18.429Z,100251.96
2022-11-19T15:15:49.232Z,100256.70
2022-11-19T15:18:35.846Z,100257.54
2022-11-19T15:21:24.589Z,100259.96
2022-11-19T15:24:02.172Z,100260.20
2022-11-19T15:26:38.665Z,100261.50
2022-11-19T15:29:32.477Z,100265.00
2022-11-19T15:32:18.855Z,100273.02
2022-11-19T15:35:14.484Z,100281.45
2022-11-19T15:37:57.178Z,100282.85
2022-11-19T15:40:30.736Z,100287.33
2022-11-19T15:43:04.361Z,100288.73
2022-11-19T15:45:39.585Z,100288.17
2022-11-19T15:48:16.217Z,100287.15
2022-11-19T15:50:44.726Z,100288.12
2022-11-19T15:53:21.152Z,100290.30
2022-11-19T15:55:56.833Z,100293.38
2022-11-19T15:58:52.359Z,100292.65
2022-11-19T16:01:22.049Z,100291.42
2022-11-19T16:03:53.406Z,100296.17
2022-11-19T16:06:25.565Z,100295.21
2022-11-19T16:08:55.530Z,100300.38
2022-11-19T16:11:45.351Z,100299.16
2022-11-19T16:14:38.023Z,100303.67
2022-11-19T16:17:41.740Z,100299.70
2022-11-19T16:20:11.595Z,100300.25
2022-11-19T16:22:42.041Z,100299.77
2022-11-19T16:25:24.700Z,100301.94
2022-11-19T16:27:57.029Z,100310.02
2022-11-19T16:30:27.360Z,100313.40
2022-11-19T16:32:59.624Z,100320.33
2022-11-19T16:35:32.416Z,100318.83
2022-11-19T16:38:01.567Z,100317.48
2022-11-19T16:40:49.501Z,100316.20
2022-11-19T16:43:18.555Z,100319.60
2022-11-19T16:45:47.530Z,100318.91
2022-11-19T16:48:50.764Z,100316.79
2022-11-19T16:51:54.479Z,100311.39
2022-11-19T16:54:46.649Z,100316.63
2022-11-19T16:57:24.632Z,100311.91
2022-11-19T17:00:01.593Z,100318.52
2022-11-19T17:02:36.151Z,100314.42
2022-11-19T17:05:13.055Z,100308.27
2022-11-19T17:07:43.369Z,100304.48
2022-11-19T17:10:11.396Z,100301.61
2022-11-19T17:12:58.751Z,100296.17
2022-11-19T17:15:46.525Z,100295.86
2022-11-19T17:18:18.034Z,100293.61
2022-11-19T17:20:45.698Z,100293.64
2022-11-19T17:23:19.395Z,100294.55
2022-11-19T17:26:01.013Z,100297.00
2022-11-19T17:35:29.566Z,100331.25
2022-11-19T17:38:01.074Z,100328.94
2022-11-19T17:40:28.743Z,100325.66
2022-11-19T17:43:14.831Z,100326.20
2022-11-19T17:45:45.299Z,100320.41
2022-11-19T17:48:22.976Z,100314.96
2022-11-19T17:50:51.858Z,100310.46
2022-11-19T17:53:19.521Z,100305.52
2022-11-19T17:55:49.541Z,100306.58
2022-11-19T17:58:17.092Z,100310.48
2022-11-19T18:00:45.072Z,100315.66
2022-11-19T18:03:14.323Z,100313.44
2022-11-19T18:05:47.186Z,100317.02
2022-11-19T18:08:16.082Z,100322.45
2022-11-19T18:10:46.803Z,100329.61
2022-11-19T18:13:34.666Z,100336.67
2022-11-19T18:16:02.330Z,100338.20
2022-11-19T18:18:30.021Z,100347.75
2022-11-19T18:21:02.123Z,100356.14
2022-11-19T18:23:30.145Z,100359.05
2022-11-19T18:25:58.063Z,100365.25
2022-11-19T18:28:25.967Z,100367.48
2022-11-19T18:30:53.959Z,100369.61
2022-11-19T18:36:25.966Z,100361.45
2022-11-19T18:38:55.698Z,100358.02
2022-11-19T18:41:23.427Z,100358.96
2022-11-19T18:44:10.419Z,100364.84
2022-11-19T18:46:38.090Z,100361.53
2022-11-19T18:49:05.947Z,100355.39
2022-11-19T18:51:34.309Z,100355.65
2022-11-19T18:54:02.110Z,100354.98
2022-11-19T18:56:31.375Z,100356.88
2022-11-19T18:59:03.397Z,100360.57
2022-11-19T19:01:33.546Z,100359.70
2022-11-19T19:04:02.083Z,100356.72
2022-11-19T19:06:32.422Z,100355.68
2022-11-19T19:09:04.858Z,100346.33
2022-11-19T19:11:53.306Z,100347.80
2022-11-19T19:14:25.472Z,100346.70
2022-11-19T19:16:53.822Z,100347.23
2022-11-19T19:19:21.913Z,100349.77
2022-11-19T19:21:50.101Z,100355.00
2022-11-19T19:24:17.972Z,100357.25
2022-11-19T19:26:46.337Z,100362.89
2022-11-19T19:29:15.539Z,100362.33
2022-11-19T19:31:44.137Z,100358.48
2022-11-19T19:34:13.442Z,100357.84
2022-11-19T19:36:41.337Z,100366.79
2022-11-19T19:39:09.198Z,100364.61
2022-11-19T19:41:36.945Z,100363.83
2022-11-19T19:44:05.707Z,100367.16
2022-11-19T19:46:33.926Z,100362.00
2022-11-19T19:49:03.869Z,100365.02
2022-11-19T19:51:32.747Z,100365.21
2022-11-19T19:54:02.149Z,100364.92
2022-11-19T19:56:31.942Z,100361.27
2022-11-19T19:59:00.972Z,100364.66
2022-11-19T20:01:33.352Z,100365.38
2022-11-19T20:04:04.797Z,100372.69
2022-11-19T20:06:33.949Z,100374.52
2022-11-19T20:09:08.163Z,100371.30
2022-11-19T20:11:39.061Z,100371.05
2022-11-19T20:14:07.499Z,100375.54
2022-11-19T20:16:43.044Z,100374.10
2022-11-19T20:19:15.114Z,100372.19
2022-11-19T20:21:43.027Z,100369.82
2022-11-19T20:24:13.474Z,100368.11
2022-11-19T20:26:42.525Z,100367.09
2022-11-19T20:29:13.856Z,100363.06
2022-11-19T20:31:49.582Z,100365.34
2022-11-19T20:34:17.806Z,100366.36
2022-11-19T20:36:46.451Z,100371.56
2022-11-19T20:39:14.952Z,100379.77
2022-11-19T20:42:01.845Z,100381.48
2022-11-19T20:44:30.401Z,100387.09
2022-11-19T20:47:01.993Z,100385.70
2022-11-19T20:49:38.078Z,100382.55
2022-11-19T20:52:08.439Z,100381.65
2022-11-19T20:54:36.498Z,100376.58
2022-11-19T20:57:04.331Z,100372.59
2022-11-19T20:59:39.553Z,100367.52
2022-11-19T21:02:09.969Z,100366.39
2022-11-19T21:04:37.989Z,100368.66
2022-11-19T21:07:06.547Z,100368.00
2022-11-19T21:09:34.375Z,100373.45
2022-11-19T21:12:02.018Z,100374.48
2022-11-19T21:14:30.576Z,100375.66
2022-11-19T21:16:58.437Z,100368.38
2022-11-19T21:19:26.240Z,100371.90
2022-11-19T21:21:53.913Z,100368.73
2022-11-19T21:24:21.700Z,100368.60
2022-11-19T21:26:49.487Z,100365.90
2022-11-19T21:29:17.139Z,100372.17
2022-11-19T21:31:47.245Z,100374.56
2022-11-19T21:34:17.568Z,100375.52
2022-11-19T21:36:47.013Z,100375.11
2022-11-19T21:39:17.272Z,100372.48
2022-11-19T21:41:45.305Z,100379.85
2022-11-19T21:44:16.700Z,100381.39
2022-11-19T21:46:47.386Z,100378.02
2022-11-19T21:49:15.220Z,100377.75
2022-11-19T21:51:43.369Z,100372.53
2022-11-19T21:54:11.294Z,100367.13
2022-11-19T21:56:39.285Z,100369.85
2022-11-19T21:59:07.530Z,100375.30
2022-11-19T22:01:35.460Z,100379.31
2022-11-19T22:04:03.345Z,100385.84
2022-11-19T22:06:32.437Z,100389.33
2022-11-19T22:09:00.260Z,100386.98
2022-11-19T22:11:31.209Z,100378.39
2022-11-19T22:14:05.134Z,100378.73
2022-11-19T22:16:35.791Z,100374.39
2022-11-19T22:19:05.542Z,100370.24
2022-11-19T22:21:34.397Z,100370.96
2022-11-19T22:24:02.430Z,100373.00
2022-11-19T22:26:30.851Z,100375.23
2022-11-19T22:28:58.646Z,100376.52
2022-11-19T22:31:26.864Z,100373.56
2022-11-19T22:33:56.348Z,100371.48
2022-11-19T22:36:24.249Z,100369.10
2022-11-19T22:38:52.291Z,100370.30
2022-11-19T22:41:22.331Z,100370.88
2022-11-19T22:43:50.127Z,100376.65
2022-11-19T22:46:18.468Z,100371.48
2022-11-19T22:48:46.201Z,100370.86
2022-11-19T22:51:13.880Z,100372.25
2022-11-19T22:53:42.125Z,100375.13
2022-11-19T22:56:12.133Z,100374.16
2022-11-19T22:58:40.122Z,100367.45
2022-11-19T23:01:15.478Z,100369.39
2022-11-19T23:03:43.281Z,100362.66
2022-11-19T23:06:11.103Z,100360.16
2022-11-19T23:08:38.764Z,100356.13
2022-11-19T23:11:07.524Z,100350.39
2022-11-19T23:13:39.253Z,100348.98
2022-11-19T23:16:16.080Z,100351.35
2022-11-19T23:18:49.401Z,100352.81
2022-11-19T23:21:20.086Z,100350.29
2022-11-19T23:23:48.285Z,100345.98
2022-11-19T23:26:17.948Z,100348.15
2022-11-19T23:28:45.955Z,100348.80
2022-11-19T23:31:19.667Z,100346.54
2022-11-19T23:33:48.369Z,100343.66
2022-11-19T23:36:18.944Z,100344.05
2022-11-19T23:38:47.479Z,100345.41
2022-11-19T23:41:17.798Z,100340.87
2022-11-19T23:43:46.769Z,100338.59
2022-11-19T23:46:20.541Z,100332.31
2022-11-19T23:48:49.874Z,100335.73
2022-11-19T23:51:20.191Z,100337.63
2022-11-19T23:53:48.410Z,100340.17
2022-11-19T23:56:18.082Z,100344.73
2022-11-19T23:58:46.098Z,100347.26
